Time;durP1;ratioP1;P1;durP2;ratioP2;P2;SDS_P1;SDS_P2;PMS_P1;PMS_P2;Temp;Humidity;BMP_temperature;BMP_pressure;BME280_temperature;BME280_humidity;BME280_pressure;Samples;Min_cycle;Max_cycle;Signal;HPM_P1;HPM_P2
2023/01/29 00:01:04;;;;;;;14.50;13.60;;;;;;;;;;4242764;28;20038;-83
2023/01/29 00:03:24;;;;;;;14.70;13.85;;;;;;;;;;4242587;28;20046;-83
2023/01/29 00:05:44;;;;;;;12.77;12.27;;;;;;;;;;4236051;28;20361;-83
2023/01/29 00:08:05;;;;;;;14.80;13.90;;;;;;;;;;4235724;28;20110;-83
2023/01/29 00:10:25;;;;;;;14.88;13.48;;;;;;;;;;4239718;28;20055;-83
2023/01/29 00:12:46;;;;;;;18.17;16.42;;;;;;;;;;4241535;28;20280;-83
2023/01/29 00:15:06;;;;;;;15.68;14.68;;;;;;;;;;4240524;28;20042;-84
2023/01/29 00:17:27;;;;;;;15.85;14.45;;;;;;;;;;4242649;27;20069;-83
2023/01/29 00:19:47;;;;;;;14.40;13.52;;;;;;;;;;4240251;28;20046;-83
2023/01/29 00:22:07;;;;;;;12.90;12.23;;;;;;;;;;4226994;28;20077;-83
2023/01/29 00:24:27;;;;;;;14.73;13.85;;;;;;;;;;4241191;28;20042;-83
2023/01/29 00:26:49;;;;;;;14.52;13.77;;;;;;;;;;4242537;28;20391;-83
2023/01/29 00:29:09;;;;;;;15.55;14.63;;;;;;;;;;4243853;28;20282;-84
2023/01/29 00:31:29;;;;;;;12.48;12.07;;;;;;;;;;4238315;28;20290;-83
2023/01/29 00:33:50;;;;;;;14.02;13.23;;;;;;;;;;4228226;28;20039;-84
2023/01/29 00:36:11;;;;;;;12.85;12.27;;;;;;;;;;4228565;28;20042;-83
2023/01/29 00:38:33;;;;;;;15.70;14.80;;;;;;;;;;4240131;28;20093;-83
2023/01/29 00:46:11;;;;;;;14.45;13.55;;;;;;;;;;4240038;28;20055;-83
2023/01/29 00:48:33;;;;;;;14.32;13.48;;;;;;;;;;4237594;28;20050;-83
2023/01/29 00:50:53;;;;;;;14.80;13.55;;;;;;;;;;4229461;28;20391;-84
2023/01/29 00:53:13;;;;;;;14.07;13.02;;;;;;;;;;4225567;28;20113;-83
2023/01/29 00:55:33;;;;;;;13.48;12.38;;;;;;;;;;4240787;28;20272;-83
2023/01/29 00:57:54;;;;;;;15.23;14.55;;;;;;;;;;4237602;28;20038;-84
2023/01/29 01:00:15;;;;;;;12.15;11.55;;;;;;;;;;4222818;28;20058;-83
2023/01/29 01:05:19;;;;;;;13.77;12.80;;;;;;;;;;4236962;28;20373;-83
2023/01/29 01:07:40;;;;;;;13.88;13.07;;;;;;;;;;4236535;28;20364;-84
2023/01/29 01:12:39;;;;;;;13.05;12.65;;;;;;;;;;4240266;28;20085;-84
2023/01/29 01:14:59;;;;;;;15.07;14.20;;;;;;;;;;4236731;28;20709;-84
2023/01/29 01:17:19;;;;;;;14.05;13.30;;;;;;;;;;4237482;28;20333;-84
2023/01/29 01:19:39;;;;;;;13.95;13.35;;;;;;;;;;4228785;28;20127;-83
2023/01/29 01:22:00;;;;;;;13.77;12.95;;;;;;;;;;4240549;28;20051;-83
2023/01/29 01:24:20;;;;;;;15.05;13.95;;;;;;;;;;4238917;28;20227;-84
2023/01/29 01:26:41;;;;;;;12.93;12.32;;;;;;;;;;4243930;28;20042;-84
2023/01/29 01:29:01;;;;;;;15.07;13.63;;;;;;;;;;4228850;28;20086;-83
2023/01/29 01:31:21;;;;;;;14.90;14.10;;;;;;;;;;4222532;28;20354;-84
2023/01/29 01:33:41;;;;;;;15.70;14.82;;;;;;;;;;4225876;28;20047;-83
2023/01/29 01:36:01;;;;;;;14.20;13.10;;;;;;;;;;4225740;28;20101;-83
2023/01/29 01:38:22;;;;;;;16.25;14.98;;;;;;;;;;4239821;28;20047;-84
2023/01/29 01:40:44;;;;;;;15.23;13.75;;;;;;;;;;4239544;28;20050;-83
2023/01/29 01:43:05;;;;;;;15.57;14.60;;;;;;;;;;4238420;28;20039;-83
2023/01/29 01:45:27;;;;;;;16.17;15.02;;;;;;;;;;4239004;28;20084;-83
2023/01/29 01:47:49;;;;;;;13.60;12.70;;;;;;;;;;4222474;28;20316;-83
2023/01/29 01:50:12;;;;;;;15.18;14.30;;;;;;;;;;4236814;28;20043;-83
2023/01/29 01:52:32;;;;;;;;;;;;;;;;;;4241554;28;20381;-83
2023/01/29 01:54:53;;;;;;;14.48;13.77;;;;;;;;;;4240645;28;19930;-83
2023/01/29 01:57:17;;;;;;;14.95;13.95;;;;;;;;;;4241893;28;20050;-83
2023/01/29 01:59:39;;;;;;;14.32;13.52;;;;;;;;;;4230895;28;20034;-83
2023/01/29 02:10:06;;;;;;;13.77;13.07;;;;;;;;;;4239800;28;20076;-83
2023/01/29 02:12:30;;;;;;;14.68;13.95;;;;;;;;;;4226387;28;20051;-83
2023/01/29 02:14:50;;;;;;;15.13;14.35;;;;;;;;;;4237188;28;20086;-83
2023/01/29 02:17:12;;;;;;;13.70;13.15;;;;;;;;;;4235994;28;20047;-83
2023/01/29 02:19:33;;;;;;;14.93;14.05;;;;;;;;;;4228701;28;20043;-83
2023/01/29 02:21:53;;;;;;;14.02;13.43;;;;;;;;;;4223962;28;20050;-83
2023/01/29 02:24:32;;;;;;;14.57;13.73;;;;;;;;;;4237466;28;20298;-83
2023/01/29 02:27:11;;;;;;;13.82;13.13;;;;;;;;;;4242370;28;20058;-83
2023/01/29 02:29:50;;;;;;;14.52;13.73;;;;;;;;;;4237150;28;20038;-83
2023/01/29 02:32:23;;;;;;;13.60;12.98;;;;;;;;;;4238967;28;20054;-83
2023/01/29 02:37:42;;;;;;;12.77;11.88;;;;;;;;;;4237969;28;20042;-83
2023/01/29 02:40:14;;;;;;;14.27;13.57;;;;;;;;;;4224802;28;20042;-83
2023/01/29 02:42:44;;;;;;;15.32;14.38;;;;;;;;;;4225187;28;20051;-83
2023/01/29 02:45:10;;;;;;;13.85;13.25;;;;;;;;;;4226311;28;20259;-83
2023/01/29 02:47:33;;;;;;;13.82;13.15;;;;;;;;;;4224455;28;20547;-83
2023/01/29 02:50:11;;;;;;;13.93;13.40;;;;;;;;;;4239856;28;20127;-83
2023/01/29 02:52:31;;;;;;;13.20;12.60;;;;;;;;;;4242917;28;20047;-83
2023/01/29 02:55:01;;;;;;;14.75;14.05;;;;;;;;;;4227409;28;20085;-83
2023/01/29 02:57:24;;;;;;;12.77;12.18;;;;;;;;;;4247609;28;20269;-83
2023/01/29 02:59:55;;;;;;;13.68;13.18;;;;;;;;;;4243952;28;20118;-83
2023/01/29 03:02:18;;;;;;;14.40;13.65;;;;;;;;;;4239491;28;20038;-84
2023/01/29 03:04:41;;;;;;;;;;;;;;;;;;4226432;28;20053;-83
2023/01/29 03:07:09;;;;;;;14.95;13.88;;;;;;;;;;4241426;28;19922;-83
2023/01/29 03:09:36;;;;;;;14.20;13.30;;;;;;;;;;4227865;28;20454;-83
2023/01/29 03:11:58;;;;;;;14.10;13.45;;;;;;;;;;4229151;28;20082;-83
2023/01/29 03:15:10;;;;;;;14.88;14.02;;;;;;;;;;4242895;28;20057;-83
2023/01/29 03:17:09;;;;;;;14.88;13.88;;;;;;;;;;4241869;28;20385;-83
2023/01/29 03:19:35;;;;;;;14.30;13.55;;;;;;;;;;4242084;28;20242;-83
2023/01/29 03:22:00;;;;;;;15.93;14.80;;;;;;;;;;4240752;28;20235;-83
2023/01/29 03:32:28;;;;;;;15.38;14.20;;;;;;;;;;4240160;28;20323;-83
2023/01/29 03:34:54;;;;;;;15.23;14.32;;;;;;;;;;4238014;28;20051;-83
2023/01/29 03:37:25;;;;;;;13.40;12.80;;;;;;;;;;4239178;28;20034;-83
2023/01/29 03:39:45;;;;;;;14.68;13.88;;;;;;;;;;4241026;28;20084;-84
2023/01/29 03:42:15;;;;;;;14.48;13.65;;;;;;;;;;4240067;28;20074;-83
2023/01/29 03:44:36;;;;;;;14.32;13.63;;;;;;;;;;4241880;28;20077;-83
2023/01/29 03:47:03;;;;;;;16.83;15.65;;;;;;;;;;4239213;28;20050;-84
2023/01/29 03:49:31;;;;;;;14.68;13.75;;;;;;;;;;4225360;28;20416;-83
2023/01/29 03:51:52;;;;;;;14.65;13.85;;;;;;;;;;4240893;28;20404;-83
2023/01/29 03:54:15;;;;;;;14.68;13.77;;;;;;;;;;4243968;28;20041;-83
2023/01/29 03:56:41;;;;;;;15.32;13.98;;;;;;;;;;4246330;28;20046;-83
2023/01/29 03:59:27;;;;;;;15.45;14.32;;;;;;;;;;4241241;28;20077;-83
2023/01/29 04:01:52;;;;;;;15.93;14.90;;;;;;;;;;4237632;28;20102;-83
2023/01/29 04:04:17;;;;;;;16.38;15.20;;;;;;;;;;4239384;28;20049;-83
2023/01/29 04:06:40;;;;;;;13.95;13.15;;;;;;;;;;4225887;28;20118;-83
2023/01/29 04:09:07;;;;;;;16.42;15.00;;;;;;;;;;4242255;28;20081;-83
2023/01/29 04:11:29;;;;;;;16.75;15.82;;;;;;;;;;4240937;28;20112;-83
2023/01/29 04:13:49;;;;;;;14.35;13.63;;;;;;;;;;4238318;28;20046;-83
2023/01/29 04:16:23;;;;;;;17.23;15.93;;;;;;;;;;4227070;28;20065;-83
2023/01/29 04:18:47;;;;;;;15.43;14.52;;;;;;;;;;4228624;28;20055;-83
2023/01/29 04:21:08;;;;;;;15.02;14.32;;;;;;;;;;4241401;28;20378;-83
2023/01/29 04:23:28;;;;;;;15.30;13.98;;;;;;;;;;4242269;28;20035;-83
2023/01/29 04:25:53;;;;;;;14.82;14.02;;;;;;;;;;4227743;28;20099;-83
2023/01/29 04:28:20;;;;;;;16.00;15.15;;;;;;;;;;4240222;28;20377;-83
2023/01/29 04:30:40;;;;;;;17.35;15.73;;;;;;;;;;4240567;28;20046;-83
2023/01/29 04:33:00;;;;;;;15.40;14.27;;;;;;;;;;4238781;28;20064;-83
2023/01/29 04:35:39;;;;;;;13.98;13.13;;;;;;;;;;4238135;28;20093;-83
2023/01/29 04:38:03;;;;;;;14.73;13.77;;;;;;;;;;4239815;28;20239;-83
2023/01/29 04:40:26;;;;;;;16.08;14.98;;;;;;;;;;4239659;28;20082;-83
2023/01/29 04:43:04;;;;;;;15.38;14.55;;;;;;;;;;4243511;28;20041;-83
2023/01/29 04:45:31;;;;;;;13.57;12.88;;;;;;;;;;4238649;28;20042;-83
2023/01/29 04:47:58;;;;;;;14.13;13.25;;;;;;;;;;4225012;28;20046;-83
2023/01/29 04:50:23;;;;;;;15.63;14.68;;;;;;;;;;4227059;28;20391;-83
2023/01/29 04:52:47;;;;;;;14.10;13.27;;;;;;;;;;4226659;28;20134;-83
2023/01/29 04:55:13;;;;;;;14.23;13.48;;;;;;;;;;4224542;28;20051;-83
2023/01/29 04:57:36;;;;;;;13.48;12.88;;;;;;;;;;4241432;28;20111;-83
2023/01/29 05:00:07;;;;;;;15.82;14.73;;;;;;;;;;4238427;28;20058;-83
2023/01/29 05:02:27;;;;;;;14.85;14.00;;;;;;;;;;4238040;28;20087;-83
2023/01/29 05:04:49;;;;;;;14.15;13.35;;;;;;;;;;4238545;28;20042;-83
2023/01/29 05:07:13;;;;;;;14.13;13.32;;;;;;;;;;4241085;28;20093;-83
2023/01/29 05:09:34;;;;;;;13.93;13.32;;;;;;;;;;4241189;28;20043;-83
2023/01/29 05:11:55;;;;;;;13.30;12.82;;;;;;;;;;4237883;28;20055;-83
2023/01/29 05:14:17;;;;;;;13.20;12.27;;;;;;;;;;4225609;28;20051;-83
2023/01/29 05:16:45;;;;;;;12.00;11.23;;;;;;;;;;4241533;28;20051;-83
2023/01/29 05:19:06;;;;;;;12.60;11.93;;;;;;;;;;4239073;28;20038;-83
2023/01/29 05:21:26;;;;;;;13.13;12.52;;;;;;;;;;4223893;28;20841;-83
2023/01/29 05:23:56;;;;;;;13.85;12.90;;;;;;;;;;4241877;28;20038;-83
2023/01/29 05:28:55;;;;;;;12.95;12.45;;;;;;;;;;4238415;28;20077;-83
2023/01/29 05:31:16;;;;;;;12.77;12.38;;;;;;;;;;4223144;28;20386;-83
2023/01/29 05:33:36;;;;;;;13.18;12.63;;;;;;;;;;4237254;28;20242;-83
2023/01/29 05:36:00;;;;;;;12.30;11.70;;;;;;;;;;4237102;28;20081;-83
2023/01/29 05:38:21;;;;;;;12.43;11.77;;;;;;;;;;4224626;28;20311;-83
2023/01/29 05:40:42;;;;;;;12.77;12.25;;;;;;;;;;4244215;28;20076;-84
2023/01/29 05:43:02;;;;;;;14.02;13.23;;;;;;;;;;4238695;28;20365;-83
2023/01/29 05:45:22;;;;;;;12.05;11.65;;;;;;;;;;4239331;28;20081;-83
2023/01/29 05:47:42;;;;;;;12.43;11.52;;;;;;;;;;4239242;28;20081;-83
2023/01/29 05:50:03;;;;;;;12.75;12.27;;;;;;;;;;4224036;28;20043;-83
2023/01/29 05:52:23;;;;;;;11.63;11.23;;;;;;;;;;4244876;28;20138;-83
2023/01/29 05:54:44;;;;;;;11.43;11.07;;;;;;;;;;4241980;28;20054;-83
2023/01/29 05:57:04;;;;;;;12.90;12.50;;;;;;;;;;4239420;28;20046;-83
2023/01/29 05:59:24;;;;;;;11.32;10.55;;;;;;;;;;4238675;28;20046;-83
2023/01/29 06:01:44;;;;;;;12.68;12.15;;;;;;;;;;4239385;28;20057;-83
2023/01/29 06:04:05;;;;;;;12.18;11.57;;;;;;;;;;4224052;28;20393;-83
2023/01/29 06:06:25;;;;;;;12.77;12.32;;;;;;;;;;4227186;28;20100;-83
2023/01/29 06:08:45;;;;;;;11.38;11.07;;;;;;;;;;4239577;28;20231;-83
2023/01/29 06:11:09;;;;;;;12.38;11.98;;;;;;;;;;4238749;28;20043;-83
2023/01/29 06:13:30;;;;;;;12.45;11.95;;;;;;;;;;4240147;28;20049;-83
2023/01/29 06:15:50;;;;;;;11.52;10.93;;;;;;;;;;4237296;28;20548;-83
2023/01/29 06:18:10;;;;;;;12.07;11.57;;;;;;;;;;4243254;28;20050;-83
2023/01/29 06:20:30;;;;;;;11.95;11.55;;;;;;;;;;4241710;28;20402;-83
2023/01/29 06:22:50;;;;;;;12.18;11.90;;;;;;;;;;4229121;28;20082;-83
2023/01/29 06:25:11;;;;;;;12.20;11.88;;;;;;;;;;4228257;28;20043;-83
2023/01/29 06:27:31;;;;;;;11.65;11.25;;;;;;;;;;4240945;28;20089;-83
2023/01/29 06:29:51;;;;;;;13.45;12.88;;;;;;;;;;4240207;28;20088;-83
2023/01/29 06:32:12;;;;;;;13.05;12.57;;;;;;;;;;4238516;28;20156;-83
2023/01/29 06:34:32;;;;;;;12.90;12.32;;;;;;;;;;4237897;28;20374;-83
2023/01/29 06:36:53;;;;;;;11.13;10.82;;;;;;;;;;4242067;28;20043;-84
2023/01/29 06:39:13;;;;;;;11.30;11.00;;;;;;;;;;4245616;28;20042;-83
2023/01/29 06:41:34;;;;;;;12.13;11.55;;;;;;;;;;4242279;28;20115;-83
2023/01/29 06:43:54;;;;;;;12.77;12.38;;;;;;;;;;4242798;28;20039;-84
2023/01/29 06:46:14;;;;;;;12.68;12.25;;;;;;;;;;4242415;28;20046;-83
2023/01/29 06:48:35;;;;;;;12.48;11.88;;;;;;;;;;4227320;28;20090;-83
2023/01/29 06:50:55;;;;;;;11.88;11.35;;;;;;;;;;4243899;28;20344;-83
2023/01/29 06:53:17;;;;;;;15.85;14.95;;;;;;;;;;4226091;28;20034;-83
2023/01/29 06:55:38;;;;;;;14.38;13.77;;;;;;;;;;4240002;28;20061;-83
2023/01/29 06:57:58;;;;;;;11.70;11.30;;;;;;;;;;4239633;28;20050;-83
2023/01/29 07:00:19;;;;;;;12.55;11.95;;;;;;;;;;4241318;28;20115;-83
2023/01/29 07:02:39;;;;;;;12.18;11.68;;;;;;;;;;4230385;28;20240;-83
2023/01/29 07:04:59;;;;;;;14.52;13.65;;;;;;;;;;4242063;28;20073;-83
2023/01/29 07:07:20;;;;;;;11.85;11.45;;;;;;;;;;4242534;28;20047;-83
2023/01/29 07:09:41;;;;;;;11.85;11.55;;;;;;;;;;4227017;28;20043;-83
2023/01/29 07:12:01;;;;;;;11.23;10.70;;;;;;;;;;4226390;28;20074;-83
2023/01/29 07:14:21;;;;;;;13.25;12.52;;;;;;;;;;4235831;28;20308;-84
2023/01/29 07:16:42;;;;;;;13.30;12.70;;;;;;;;;;4241332;28;20366;-84
2023/01/29 07:19:02;;;;;;;10.77;10.48;;;;;;;;;;4241070;28;20046;-83
2023/01/29 07:21:22;;;;;;;11.38;11.07;;;;;;;;;;4241978;28;20106;-83
2023/01/29 07:23:42;;;;;;;11.52;11.23;;;;;;;;;;4242348;28;20089;-83
2023/01/29 07:26:03;;;;;;;9.75;9.27;;;;;;;;;;4237784;28;20389;-83
2023/01/29 07:28:23;;;;;;;11.73;11.15;;;;;;;;;;4238915;28;20085;-83
2023/01/29 07:30:44;;;;;;;11.50;11.20;;;;;;;;;;4238649;28;20322;-83
2023/01/29 07:33:06;;;;;;;15.98;15.02;;;;;;;;;;4238460;28;20043;-83
2023/01/29 07:35:27;;;;;;;11.70;11.20;;;;;;;;;;4243343;28;20042;-83
2023/01/29 07:37:51;;;;;;;12.50;12.05;;;;;;;;;;4244746;28;20070;-83
2023/01/29 07:40:11;;;;;;;10.52;10.23;;;;;;;;;;4242372;28;20051;-83
2023/01/29 07:42:32;;;;;;;12.35;11.85;;;;;;;;;;4243419;28;20241;-83
2023/01/29 07:44:52;;;;;;;11.50;11.10;;;;;;;;;;4225982;28;20059;-83
2023/01/29 07:47:12;;;;;;;12.18;11.52;;;;;;;;;;4240176;28;20066;-83
2023/01/29 07:49:32;;;;;;;11.15;10.70;;;;;;;;;;4241305;28;20039;-84
2023/01/29 07:51:52;;;;;;;11.45;11.13;;;;;;;;;;4226648;28;20058;-83
2023/01/29 07:54:13;;;;;;;11.25;10.82;;;;;;;;;;4226164;28;20039;-83
2023/01/29 07:56:33;;;;;;;13.55;12.98;;;;;;;;;;4226117;28;20048;-83
2023/01/29 07:58:53;;;;;;;12.38;11.98;;;;;;;;;;4226213;28;20050;-83
2023/01/29 08:01:13;;;;;;;11.77;11.27;;;;;;;;;;4237805;28;20101;-83
2023/01/29 08:03:34;;;;;;;12.52;11.90;;;;;;;;;;4240224;28;20315;-83
2023/01/29 08:05:54;;;;;;;17.25;15.85;;;;;;;;;;4243072;28;20080;-84
2023/01/29 08:08:15;;;;;;;17.38;15.98;;;;;;;;;;4240127;28;20039;-83
2023/01/29 08:10:35;;;;;;;29.35;23.55;;;;;;;;;;4240660;28;20041;-84
2023/01/29 08:12:57;;;;;;;20.05;18.48;;;;;;;;;;4236534;27;20377;-83
2023/01/29 08:15:17;;;;;;;14.20;13.50;;;;;;;;;;4241236;27;20438;-84
2023/01/29 08:17:38;;;;;;;12.20;11.77;;;;;;;;;;4240064;28;20047;-83
2023/01/29 08:20:17;;;;;;;12.85;12.50;;;;;;;;;;4239989;28;20071;-83
2023/01/29 08:22:38;;;;;;;11.73;11.32;;;;;;;;;;4240044;28;20042;-84
2023/01/29 08:24:58;;;;;;;12.20;11.60;;;;;;;;;;4237025;28;20050;-84
2023/01/29 08:27:28;;;;;;;13.32;12.57;;;;;;;;;;4239396;28;20042;-84
2023/01/29 08:29:48;;;;;;;13.45;12.65;;;;;;;;;;4226166;28;20078;-83
2023/01/29 08:32:11;;;;;;;14.30;13.43;;;;;;;;;;4239044;28;20385;-84
2023/01/29 08:34:32;;;;;;;13.90;13.02;;;;;;;;;;4239459;28;20039;-84
2023/01/29 08:36:52;;;;;;;14.05;13.35;;;;;;;;;;4243229;28;20119;-83
2023/01/29 08:39:13;;;;;;;13.60;12.95;;;;;;;;;;4240555;28;20051;-83
2023/01/29 08:41:33;;;;;;;15.82;14.77;;;;;;;;;;4224931;28;20074;-84
2023/01/29 08:43:53;;;;;;;11.70;11.30;;;;;;;;;;4242755;28;20062;-84
2023/01/29 08:46:13;;;;;;;11.18;10.68;;;;;;;;;;4239918;28;20063;-84
2023/01/29 08:48:33;;;;;;;13.88;13.07;;;;;;;;;;4240299;28;20049;-84
2023/01/29 08:50:59;;;;;;;12.27;11.77;;;;;;;;;;4243434;28;20446;-84
2023/01/29 08:53:23;;;;;;;10.07;9.85;;;;;;;;;;4234405;28;20307;-83
2023/01/29 08:55:45;;;;;;;10.18;9.75;;;;;;;;;;4223869;28;20070;-83
2023/01/29 08:58:07;;;;;;;10.48;10.18;;;;;;;;;;4227048;28;20283;-84
2023/01/29 09:00:27;;;;;;;11.40;11.10;;;;;;;;;;4239901;28;20419;-83
2023/01/29 09:02:47;;;;;;;10.40;10.10;;;;;;;;;;4239706;28;20051;-83
2023/01/29 09:05:07;;;;;;;13.38;12.52;;;;;;;;;;4240913;28;20042;-84
2023/01/29 09:07:28;;;;;;;11.48;11.18;;;;;;;;;;4241071;28;20055;-84
2023/01/29 09:09:49;;;;;;;10.80;10.50;;;;;;;;;;4242032;28;20074;-84
2023/01/29 09:12:09;;;;;;;10.65;10.25;;;;;;;;;;4230611;28;20078;-84
2023/01/29 09:14:29;;;;;;;11.65;11.38;;;;;;;;;;4240177;28;20387;-84
2023/01/29 09:16:49;;;;;;;10.68;10.38;;;;;;;;;;4240238;28;20047;-84
2023/01/29 09:19:10;;;;;;;12.35;11.85;;;;;;;;;;4225191;28;20160;-85
2023/01/29 09:21:30;;;;;;;9.82;9.60;;;;;;;;;;4225450;28;20055;-84
2023/01/29 09:23:50;;;;;;;9.98;9.73;;;;;;;;;;4236701;28;20065;-84
2023/01/29 09:26:10;;;;;;;9.25;9.05;;;;;;;;;;4239372;28;20277;-84
2023/01/29 09:28:30;;;;;;;10.65;10.35;;;;;;;;;;4237245;28;20396;-84
2023/01/29 09:30:51;;;;;;;10.02;9.70;;;;;;;;;;4238358;28;20054;-84
2023/01/29 09:33:11;;;;;;;10.90;10.43;;;;;;;;;;4226903;28;20050;-84
2023/01/29 09:35:32;;;;;;;10.07;9.55;;;;;;;;;;4245857;28;20064;-84
2023/01/29 09:37:52;;;;;;;9.15;8.95;;;;;;;;;;4226486;28;20093;-84
2023/01/29 09:40:30;;;;;;;8.98;8.63;;;;;;;;;;4241264;28;20043;-84
2023/01/29 09:42:55;;;;;;;9.75;9.38;;;;;;;;;;4242263;28;20050;-84
2023/01/29 09:45:20;;;;;;;9.55;9.35;;;;;;;;;;4235881;28;20047;-84
2023/01/29 09:47:40;;;;;;;9.98;9.68;;;;;;;;;;4240738;28;20115;-86
2023/01/29 09:50:08;;;;;;;12.15;11.35;;;;;;;;;;4224405;28;20108;-84
2023/01/29 09:52:49;;;;;;;9.48;9.27;;;;;;;;;;4237484;28;20103;-82
2023/01/29 09:55:29;;;;;;;9.75;9.50;;;;;;;;;;4238701;28;20050;-82
2023/01/29 09:57:52;;;;;;;9.68;9.38;;;;;;;;;;4238212;28;20085;-81
2023/01/29 10:00:12;;;;;;;;;;;;;;;;;;4240334;28;20054;-82
2023/01/29 10:02:52;;;;;;;8.95;8.82;;;;;;;;;;4222851;28;19916;-81
2023/01/29 10:05:15;;;;;;;8.93;8.73;;;;;;;;;;4222719;28;20059;-80
2023/01/29 10:07:43;;;;;;;11.35;10.95;;;;;;;;;;4222942;28;20051;-82
2023/01/29 10:10:26;;;;;;;8.98;8.77;;;;;;;;;;4220216;28;20048;-81
2023/01/29 10:13:06;;;;;;;8.73;8.52;;;;;;;;;;4221233;28;20062;-81
2023/01/29 10:15:27;;;;;;;8.65;8.35;;;;;;;;;;4185574;28;20223;-81
2023/01/29 10:18:01;;;;;;;10.70;10.45;;;;;;;;;;4207572;28;20109;-81
2023/01/29 10:20:29;;;;;;;11.75;11.13;;;;;;;;;;4208685;28;20083;-81
2023/01/29 10:22:49;;;;;;;12.40;11.70;;;;;;;;;;4218111;28;20050;-81
2023/01/29 10:25:11;;;;;;;20.13;18.27;;;;;;;;;;4207763;28;20099;-85
2023/01/29 10:27:37;;;;;;;11.35;10.93;;;;;;;;;;4220928;28;20086;-81
2023/01/29 10:29:58;;;;;;;10.95;10.55;;;;;;;;;;4221423;28;20107;-81
2023/01/29 10:32:21;;;;;;;9.57;9.27;;;;;;;;;;4225017;28;20077;-81
2023/01/29 10:34:48;;;;;;;9.93;9.63;;;;;;;;;;4227526;28;20243;-81
2023/01/29 10:37:20;;;;;;;12.27;11.77;;;;;;;;;;4207236;28;20154;-81
2023/01/29 10:39:40;;;;;;;9.68;9.38;;;;;;;;;;4225279;28;20054;-81
2023/01/29 10:42:04;;;;;;;20.27;18.58;;;;;;;;;;4222763;28;20092;-81
2023/01/29 10:44:39;;;;;;;11.45;10.88;;;;;;;;;;4220497;28;20094;-81
2023/01/29 10:47:02;;;;;;;9.98;9.60;;;;;;;;;;4223927;28;20046;-81
2023/01/29 10:49:22;;;;;;;;;;;;;;;;;;4222354;28;20043;-81
2023/01/29 10:51:46;;;;;;;9.63;9.38;;;;;;;;;;4206407;28;19923;-80
2023/01/29 10:54:27;;;;;;;10.27;9.98;;;;;;;;;;4220750;28;20066;-81
2023/01/29 10:56:56;;;;;;;10.35;10.15;;;;;;;;;;4220984;28;20404;-81
2023/01/29 10:59:28;;;;;;;10.27;10.07;;;;;;;;;;4221505;28;20043;-81
2023/01/29 11:01:48;;;;;;;9.25;9.05;;;;;;;;;;4222410;28;20111;-81
2023/01/29 11:04:11;;;;;;;9.90;9.50;;;;;;;;;;4224310;28;20045;-80
2023/01/29 11:06:33;;;;;;;14.98;13.82;;;;;;;;;;4223973;28;20061;-81
2023/01/29 11:09:07;;;;;;;11.73;11.02;;;;;;;;;;4218453;28;20038;-80
2023/01/29 11:11:34;;;;;;;9.68;9.18;;;;;;;;;;4221641;28;20059;-80
2023/01/29 11:13:59;;;;;;;8.82;8.73;;;;;;;;;;4225185;28;20243;-80
2023/01/29 11:16:19;;;;;;;9.70;9.30;;;;;;;;;;4209864;28;20071;-80
2023/01/29 11:18:55;;;;;;;8.65;8.45;;;;;;;;;;4211506;28;20074;-80
2023/01/29 11:21:16;;;;;;;9.38;9.18;;;;;;;;;;4220538;28;20093;-81
2023/01/29 11:23:36;;;;;;;9.25;8.95;;;;;;;;;;4222222;28;20036;-81
2023/01/29 11:25:57;;;;;;;9.25;9.05;;;;;;;;;;4226719;28;20381;-81
2023/01/29 11:28:34;;;;;;;9.40;9.20;;;;;;;;;;4208642;28;20044;-81
2023/01/29 11:30:54;;;;;;;11.27;10.77;;;;;;;;;;4224307;28;20318;-81
2023/01/29 11:33:19;;;;;;;10.07;9.65;;;;;;;;;;4232115;28;20450;-81
2023/01/29 11:35:40;;;;;;;10.10;9.82;;;;;;;;;;4224973;28;20051;-81
2023/01/29 11:38:15;;;;;;;9.50;9.27;;;;;;;;;;4207597;28;20048;-81
2023/01/29 11:40:37;;;;;;;8.70;8.60;;;;;;;;;;4226067;28;20047;-81
2023/01/29 11:43:10;;;;;;;8.70;8.60;;;;;;;;;;4222254;28;20047;-81
2023/01/29 11:45:33;;;;;;;8.00;7.90;;;;;;;;;;4224350;28;20070;-81
2023/01/29 11:47:54;;;;;;;8.25;8.05;;;;;;;;;;4209125;28;20094;-80
2023/01/29 11:50:26;;;;;;;9.32;9.13;;;;;;;;;;4209171;28;20047;-80
2023/01/29 11:52:46;;;;;;;16.38;15.52;;;;;;;;;;4219585;28;20370;-80
2023/01/29 11:55:13;;;;;;;10.88;10.57;;;;;;;;;;4224038;28;20108;-80
2023/01/29 11:57:34;;;;;;;9.82;9.48;;;;;;;;;;4222194;28;20082;-81
2023/01/29 11:59:56;;;;;;;8.43;8.20;;;;;;;;;;4223226;28;20065;-80
2023/01/29 12:02:30;;;;;;;9.02;8.82;;;;;;;;;;4223196;28;20086;-80
2023/01/29 12:04:50;;;;;;;10.40;10.18;;;;;;;;;;4224666;28;20094;-80
2023/01/29 12:07:12;;;;;;;8.25;8.05;;;;;;;;;;4221375;28;20271;-81
2023/01/29 12:09:32;;;;;;;8.10;7.90;;;;;;;;;;4206450;28;20401;-81
2023/01/29 12:11:52;;;;;;;9.82;9.63;;;;;;;;;;4224502;28;20047;-80
2023/01/29 12:14:22;;;;;;;9.13;8.82;;;;;;;;;;4224285;28;20047;-81
2023/01/29 12:16:54;;;;;;;10.68;10.38;;;;;;;;;;4209583;28;20098;-80
2023/01/29 12:19:21;;;;;;;12.57;11.90;;;;;;;;;;4221434;28;20050;-80
2023/01/29 12:22:04;;;;;;;9.07;8.75;;;;;;;;;;4219468;28;20341;-80
2023/01/29 12:24:38;;;;;;;10.23;9.93;;;;;;;;;;4225313;28;20089;-80
2023/01/29 12:27:07;;;;;;;9.85;9.23;;;;;;;;;;4208975;28;20414;-80
2023/01/29 12:29:42;;;;;;;9.18;8.93;;;;;;;;;;4203933;28;20048;-81
2023/01/29 12:32:09;;;;;;;10.02;9.82;;;;;;;;;;4229832;28;20061;-80
2023/01/29 12:34:29;;;;;;;10.55;10.25;;;;;;;;;;4227258;28;20353;-80
2023/01/29 12:37:11;;;;;;;8.02;7.85;;;;;;;;;;4226938;28;20089;-81
2023/01/29 12:39:31;;;;;;;9.80;9.60;;;;;;;;;;4211261;28;20130;-80
2023/01/29 12:41:58;;;;;;;7.30;7.20;;;;;;;;;;4223945;28;20078;-81
2023/01/29 12:44:51;;;;;;;9.40;9.30;;;;;;;;;;4224200;28;20051;-80
2023/01/29 12:47:20;;;;;;;9.17;9.07;;;;;;;;;;4148706;28;20117;-81
2023/01/29 12:49:41;;;;;;;9.25;8.85;;;;;;;;;;4149043;28;20053;-80
2023/01/29 12:52:14;;;;;;;9.73;9.45;;;;;;;;;;4146455;28;20057;-81
2023/01/29 12:54:37;;;;;;;8.70;8.23;;;;;;;;;;4150607;28;20065;-81
2023/01/29 12:56:59;;;;;;;8.85;8.40;;;;;;;;;;4148857;28;20456;-80
2023/01/29 12:59:49;;;;;;;8.07;7.90;;;;;;;;;;4152837;28;20052;-81
2023/01/29 13:02:18;;;;;;;8.52;8.23;;;;;;;;;;4123131;28;20045;-81
2023/01/29 13:04:44;;;;;;;7.60;7.50;;;;;;;;;;4126263;28;20066;-81
2023/01/29 13:07:10;;;;;;;9.25;9.15;;;;;;;;;;4116713;28;20058;-81
2023/01/29 13:09:32;;;;;;;8.63;8.43;;;;;;;;;;4121869;28;20332;-81
2023/01/29 13:11:58;;;;;;;8.25;8.13;;;;;;;;;;4123117;28;20050;-81
2023/01/29 13:14:20;;;;;;;9.88;9.57;;;;;;;;;;4114833;28;20053;-81
2023/01/29 13:16:43;;;;;;;9.97;9.53;;;;;;;;;;4123119;28;20420;-81
2023/01/29 13:19:05;;;;;;;7.82;7.63;;;;;;;;;;4122984;28;20302;-81
2023/01/29 13:21:28;;;;;;;8.40;8.30;;;;;;;;;;4123084;28;20138;-81
2023/01/29 13:23:55;;;;;;;8.40;8.20;;;;;;;;;;4171691;28;20076;-81
2023/01/29 13:26:19;;;;;;;8.50;8.40;;;;;;;;;;4173018;28;20101;-80
2023/01/29 13:28:40;;;;;;;10.02;9.82;;;;;;;;;;4171598;28;20276;-81
2023/01/29 13:31:16;;;;;;;9.48;9.07;;;;;;;;;;4177207;28;20136;-81
2023/01/29 13:33:37;;;;;;;8.40;8.20;;;;;;;;;;4172028;28;20044;-81
2023/01/29 13:35:58;;;;;;;7.97;7.88;;;;;;;;;;4173130;28;20052;-81
2023/01/29 13:38:26;;;;;;;12.35;11.57;;;;;;;;;;4191699;28;20108;-80
2023/01/29 13:40:50;;;;;;;9.05;8.73;;;;;;;;;;4222612;28;20055;-81
2023/01/29 13:43:17;;;;;;;8.77;8.57;;;;;;;;;;4220136;28;20134;-80
2023/01/29 13:45:42;;;;;;;10.35;10.10;;;;;;;;;;4207455;28;20116;-81
2023/01/29 13:48:10;;;;;;;50.28;35.95;;;;;;;;;;4220759;28;20051;-80
2023/01/29 13:50:36;;;;;;;18.17;16.67;;;;;;;;;;4217871;28;20051;-81
2023/01/29 13:52:57;;;;;;;9.18;8.85;;;;;;;;;;4207906;28;20059;-81
2023/01/29 13:55:17;;;;;;;9.10;8.80;;;;;;;;;;4223009;28;20365;-81
2023/01/29 13:57:43;;;;;;;13.80;13.25;;;;;;;;;;4208711;28;20371;-81
2023/01/29 14:00:05;;;;;;;9.00;8.80;;;;;;;;;;4223044;28;20051;-81
2023/01/29 14:02:26;;;;;;;9.18;8.82;;;;;;;;;;4210738;28;20111;-81
2023/01/29 14:04:47;;;;;;;9.13;8.82;;;;;;;;;;4219571;28;20116;-81
2023/01/29 14:07:27;;;;;;;8.27;7.97;;;;;;;;;;4219993;28;20059;-81
2023/01/29 14:10:00;;;;;;;8.02;7.72;;;;;;;;;;4223412;28;20055;-81
2023/01/29 14:12:21;;;;;;;8.40;8.15;;;;;;;;;;4220778;28;20047;-81
2023/01/29 14:15:04;;;;;;;8.38;8.18;;;;;;;;;;4222683;28;20043;-82
2023/01/29 14:17:24;;;;;;;;;;;;;;;;;;4206452;28;20122;-81
2023/01/29 14:20:19;;;;;;;7.47;7.38;;;;;;;;;;4213999;28;19930;-80
2023/01/29 14:22:40;;;;;;;8.30;8.10;;;;;;;;;;4204810;28;20112;-81
2023/01/29 14:25:02;;;;;;;32.08;28.63;;;;;;;;;;4220683;28;20054;-81
2023/01/29 14:27:24;;;;;;;8.68;8.48;;;;;;;;;;4222629;28;20093;-81
2023/01/29 14:29:44;;;;;;;7.65;7.45;;;;;;;;;;4225576;28;20046;-80
2023/01/29 14:32:18;;;;;;;8.85;8.68;;;;;;;;;;4208612;28;20052;-81
2023/01/29 14:34:43;;;;;;;8.90;8.52;;;;;;;;;;4210702;28;20047;-81
2023/01/29 14:37:19;;;;;;;8.85;8.38;;;;;;;;;;4222867;28;20051;-81
2023/01/29 14:39:44;;;;;;;9.55;9.15;;;;;;;;;;4209750;28;20044;-80